Latest Weather Observations for Wadeye (Port Keats)

IDD60801

Issued at 8:31 pm CST Saturday 25 February 2017 (issued every 30 minutes, with the page automatically refreshed every 10 minutes)

About weather observations | Map of weather stations | Latest weather observations for NT | Other Formats
Station Details ID: 014948 Name: PORT KEATS AIRPORT Lat: -14.25 Lon: 129.53 Height: 28.0 m
Data from the previous 72 hours. | See also: Recent months at Wadeye (Port Keats)
Date/Time
CST
Temp
°C
App
Temp
°C
Dew
Point
°C
Rel
Hum
%
Delta-T
°C
Wind Press
QNH
hPa
Press
MSL
hPa
Rain since
9am
mm
Dir  Spd
km/h
Gust
km/h
Spd
kts
Gust
kts
25/08:00pm 28.2 32.8 21.7 68 4.4 CALM 0 4 0 2 1008.9 1008.7 0.0
25/07:30pm 29.2 32.2 20.9 61 5.5 WSW 6 7 3 4 1008.3 1008.1 0.0
25/07:00pm 30.4 32.8 20.0 53 6.9 WNW 7 11 4 6 1007.9 1007.7 0.0
25/06:30pm 31.2 33.3 20.2 52 7.3 WNW 9 11 5 6 1007.3 1007.1 0.0
25/06:00pm 31.8 33.7 19.8 49 7.9 WNW 9 13 5 7 1007.3 1007.1 0.0
25/05:30pm 32.8 33.9 18.9 43 9.1 NW 11 17 6 9 1007.2 1007.0 0.0
25/05:00pm 32.8 34.2 18.6 43 9.2 WNW 9 13 5 7 1007.3 1007.1 0.0
25/04:30pm 33.4 33.0 16.3 36 10.8 WNW 13 17 7 9 1007.6 1007.4 0.0
25/04:00pm 33.3 32.9 16.2 36 10.8 WNW 13 19 7 10 1007.8 1007.6 0.0
25/03:30pm 33.9 33.7 16.7 35 11.0 WNW 13 17 7 9 1008.0 1007.8 0.0
25/03:00pm 33.4 33.4 17.1 37 10.4 WNW 13 20 7 11 1008.3 1008.1 0.0
25/02:30pm 33.9 33.7 18.4 40 10.1 NW 17 24 9 13 1008.5 1008.3 0.0
25/02:00pm 33.3 34.3 21.1 48 8.2 NW 17 26 9 14 1008.9 1008.7 0.0
25/01:30pm 32.9 33.7 21.4 50 7.8 NNW 19 28 10 15 1009.3 1009.1 0.0
25/01:00pm 32.7 34.4 20.9 49 7.9 NNW 13 20 7 11 1009.7 1009.5 0.0
25/12:30pm 33.2 34.6 18.6 42 9.5 N 9 13 5 7 1010.3 1010.1 0.0
25/12:00pm 33.4 35.6 19.5 44 9.2 NE 7 17 4 9 1010.8 1010.6 0.0
25/11:30am 32.5 34.7 19.7 46 8.5 NNE 7 11 4 6 1011.1 1010.9 0.0
25/11:00am 31.7 34.8 21.5 54 6.9 ENE 7 15 4 8 1011.2 1011.0 0.0
25/10:30am 30.7 33.5 22.3 61 5.7 NE 11 17 6 9 1011.5 1011.3 0.0
25/10:00am 30.1 33.4 22.5 63 5.2 NE 9 13 5 7 1011.5 1011.3 0.0
25/09:30am 29.8 34.3 23.7 70 4.2 ENE 6 9 3 5 1011.6 1011.4 0.0
25/09:00am 29.3 33.0 23.3 70 4.1 NE 9 13 5 7 1011.4 1011.2 0.0
25/08:30am 29.1 34.5 23.8 73 3.7 ENE 2 7 1 4 1011.0 1010.8 0.0
25/08:00am 28.0 33.7 24.4 81 2.5 ESE 2 6 1 3 1010.7 1010.5 0.0
25/07:30am 25.9 31.8 24.1 90 1.2 CALM 0 0 0 0 1010.5 1010.3 0.0
25/07:00am 25.6 31.3 23.8 90 1.2 CALM 0 0 0 0 1010.6 1010.4 0.0
25/06:30am 26.3 32.0 23.8 86 1.7 CALM 0 2 0 1 1010.4 1010.2 0.0
25/06:00am 26.5 31.2 24.0 86 1.7 E 6 9 3 5 1010.0 1009.8 0.0
25/05:30am 26.7 31.6 24.4 87 1.6 SE 6 7 3 4 1009.9 1009.7 0.0
25/05:00am 26.7 31.6 24.4 87 1.6 SE 6 7 3 4 1009.5 1009.3 0.0
25/04:30am 26.9 32.9 24.2 85 1.9 CALM 0 2 0 1 1009.3 1009.1 0.0
25/04:00am 27.2 33.3 24.5 85 1.9 CALM 0 0 0 0 1009.1 1008.9 0.0
25/03:30am 27.3 33.4 24.4 84 2.0 CALM 0 0 0 0 1009.0 1008.8 0.0
25/03:00am 27.3 32.9 24.2 83 2.1 NW 2 7 1 4 1009.0 1008.8 0.0
25/02:30am 27.4 32.3 24.3 83 2.2 NNW 6 9 3 5 1009.2 1009.0 0.0
25/02:00am 27.9 32.5 24.7 83 2.2 N 9 11 5 6 1009.2 1009.0 0.0
25/01:30am 28.0 32.9 24.6 82 2.4 N 7 9 4 5 1009.5 1009.3 0.0
25/01:00am 28.0 32.9 24.6 82 2.4 NNW 7 11 4 6 1009.5 1009.3 0.0
25/12:30am 28.2 33.3 24.6 81 2.5 N 6 9 3 5 1009.8 1009.6 0.0
25/12:00am 28.3 33.1 24.5 80 2.6 N 7 9 4 5 1010.0 1009.8 0.0
 
Date/Time
CST
Temp
°C
App
Temp
°C
Dew
Point
°C
Rel
Hum
%
Delta-T
°C
Wind Press
QNH
hPa
Press
MSL
hPa
Rain since
9am
mm
Dir  Spd
km/h
Gust
km/h
Spd
kts
Gust
kts
24/11:30pm 28.6 33.5 24.6 79 2.8 N 7 11 4 6 1010.2 1010.0 0.0
24/11:00pm 28.7 33.0 24.3 77 3.1 N 9 11 5 6 1010.3 1010.1 0.0
24/10:30pm 29.0 33.3 24.3 76 3.3 NNW 9 13 5 7 1010.1 1009.9 0.0
24/10:00pm 29.3 33.4 24.6 76 3.3 N 11 15 6 8 1009.8 1009.6 0.0
24/09:30pm 29.2 33.1 24.3 75 3.4 N 11 15 6 8 1009.4 1009.2 0.0
24/09:00pm 29.6 33.3 24.5 74 3.6 N 13 17 7 9 1008.9 1008.7 0.0
24/08:30pm 29.8 33.3 24.2 72 3.9 N 13 17 7 9 1008.6 1008.4 0.0
24/08:00pm 29.9 32.8 23.8 70 4.2 N 15 19 8 10 1008.5 1008.3 0.0
24/07:30pm 30.3 33.1 23.7 68 4.6 N 15 20 8 11 1008.5 1008.3 0.0
24/07:00pm 30.7 33.1 23.6 66 4.9 N 17 20 9 11 1007.9 1007.7 0.0
24/06:30pm 30.9 34.2 23.8 66 4.9 NNE 13 19 7 10 1007.8 1007.6 0.0
24/06:00pm 31.0 34.4 23.4 64 5.3 NE 11 17 6 9 1007.6 1007.4 0.0
24/05:30pm 31.6 34.0 22.9 60 6.0 NNW 15 19 8 10 1007.1 1006.9 0.0
24/05:00pm 32.9 35.2 22.7 55 7.0 NW 15 24 8 13 1007.2 1007.0 0.0
24/04:30pm 33.8 35.9 23.8 56 7.0 NNW 19 26 10 14 1006.7 1006.5 0.0
24/04:00pm 33.7 35.2 23.1 54 7.3 NNW 20 28 11 15 1006.9 1006.7 0.0
24/03:30pm 34.4 37.2 24.3 55 7.1 NW 17 24 9 13 1007.2 1007.0 0.0
24/03:00pm 34.4 36.3 23.4 52 7.7 NNW 19 28 10 15 1006.9 1006.7 0.0
24/02:30pm 34.7 37.5 23.7 52 7.7 N 15 24 8 13 1007.5 1007.3 0.0
24/02:00pm 34.9 38.6 23.2 50 8.1 N 9 19 5 10 1007.9 1007.7 0.0
24/01:30pm 34.0 36.5 21.8 49 8.3 NE 11 17 6 9 1008.4 1008.2 0.0
24/01:00pm 34.3 37.2 21.7 47 8.6 ENE 9 13 5 7 1008.9 1008.7 0.0
24/12:30pm 33.5 36.5 22.0 51 7.9 E 9 20 5 11 1009.2 1009.0 0.0
24/12:00pm 33.3 36.6 21.8 51 7.8 N 7 17 4 9 1009.6 1009.4 0.0
24/11:30am 33.1 36.6 22.2 52 7.5 E 7 13 4 7 1010.0 1009.8 0.0
24/11:00am 32.4 35.9 22.8 57 6.6 N 9 13 5 7 1010.2 1010.0 0.0
24/10:30am 31.8 36.1 23.6 62 5.7 W 7 13 4 7 1010.3 1010.1 0.0
24/10:00am 31.0 36.3 24.4 68 4.6 NNW 4 11 2 6 1010.3 1010.1 0.0
24/09:30am 29.7 34.7 24.8 75 3.4 N 7 11 4 6 1010.3 1010.1 0.0
24/09:00am 28.2 33.1 24.6 81 2.5 N 7 9 4 5 1010.3 1010.1 0.0
24/08:30am 27.3 33.0 23.7 81 2.5 CALM 0 0 0 0 1010.3 1010.1 0.0
24/08:00am 27.2 32.3 23.4 80 2.6 E 2 7 1 4 1010.1 1009.9 0.0
24/07:30am 26.0 30.4 23.5 86 1.7 E 6 9 3 5 1009.9 1009.7 0.0
24/07:00am 24.9 29.4 23.0 89 1.3 SE 4 9 2 5 1009.6 1009.4 0.0
24/06:30am 24.9 29.5 23.1 90 1.2 NNE 4 9 2 5 1009.2 1009.0 0.0
24/06:00am 24.4 29.4 22.5 89 1.3 CALM 0 0 0 0 1009.1 1008.9 0.0
24/05:30am 24.4 28.3 22.5 89 1.3 SSW 6 7 3 4 1009.1 1008.9 0.0
24/05:00am 25.0 28.1 22.9 88 1.4 SSE 11 15 6 8 1009.1 1008.9 0.0
24/04:30am 24.3 28.8 22.2 88 1.4 S 2 6 1 3 1008.4 1008.2 0.0
24/04:00am 25.2 29.6 23.4 90 1.2 ESE 6 7 3 4 1008.2 1008.0 0.0
24/03:30am 25.0 29.6 23.1 89 1.3 SE 4 7 2 4 1008.1 1007.9 0.0
24/03:00am 24.4 29.2 22.1 87 1.5 CALM 0 4 0 2 1008.0 1007.8 0.0
24/02:30am 25.1 30.3 22.8 87 1.6 CALM 0 0 0 0 1008.1 1007.9 0.0
24/02:00am 24.3 29.1 22.2 88 1.4 CALM 0 0 0 0 1008.1 1007.9 0.0
24/01:30am 24.9 30.0 22.6 87 1.6 CALM 0 0 0 0 1008.3 1008.1 0.0
24/01:00am 26.0 31.0 23.9 88 1.4 SSE 4 9 2 5 1008.5 1008.3 0.0
24/12:30am 25.8 31.2 23.3 86 1.7 CALM 0 0 0 0 1008.5 1008.3 0.0
24/12:00am 26.6 32.2 23.5 83 2.1 CALM 0 0 0 0 1008.9 1008.7 0.0
 
Date/Time
CST
Temp
°C
App
Temp
°C
Dew
Point
°C
Rel
Hum
%
Delta-T
°C
Wind Press
QNH
hPa
Press
MSL
hPa
Rain since
9am
mm
Dir  Spd
km/h
Gust
km/h
Spd
kts
Gust
kts
23/11:30pm 26.6 31.4 23.5 83 2.1 ENE 4 9 2 5 1009.0 1008.8 0.0
23/11:00pm 26.8 32.5 23.7 83 2.1 CALM 0 0 0 0 1008.9 1008.7 0.0
23/10:30pm 26.2 30.4 23.1 83 2.1 SW 6 7 3 4 1008.7 1008.5 0.0
23/10:00pm 26.9 31.6 22.7 78 2.8 SW 2 6 1 3 1008.5 1008.3 0.0
23/09:30pm 27.4 31.3 22.6 75 3.3 SW 6 7 3 4 1008.3 1008.1 0.0
23/09:00pm 28.1 32.8 21.9 69 4.2 CALM 0 0 0 0 1008.0 1007.8 0.0
23/08:30pm 28.2 31.5 21.5 67 4.5 SW 6 7 3 4 1007.7 1007.5 0.0
23/08:00pm 28.9 31.9 20.9 62 5.3 SW 6 9 3 5 1007.3 1007.1 0.0
23/07:30pm 30.1 32.7 20.4 56 6.4 WSW 7 9 4 5 1007.1 1006.9 0.0
23/07:00pm 32.4 34.5 19.3 46 8.6 WSW 7 11 4 6 1006.9 1006.7 0.0
23/06:30pm 33.9 35.4 18.8 41 9.9 W 9 13 5 7 1006.7 1006.5 0.0
23/06:00pm 35.2 36.4 19.1 38 10.6 W 11 15 6 8 1006.5 1006.3 0.0
23/05:30pm 36.4 36.1 13.2 25 14.2 SW 7 13 4 7 1006.4 1006.2 0.0
23/05:00pm 35.8 34.7 14.4 27 13.3 SW 13 20 7 11 1006.3 1006.1 0.0
23/04:30pm 36.2 34.7 13.0 24 14.1 SW 13 20 7 11 1006.2 1006.0 0.0
23/04:00pm 36.3 35.4 14.9 28 13.4 SW 13 19 7 10 1006.4 1006.2 0.0
23/03:30pm 36.3 35.2 13.1 25 14.2 SW 11 17 6 9 1006.4 1006.2 0.0
23/03:00pm 36.0 35.0 14.6 27 13.3 SW 13 20 7 11 1006.6 1006.4 0.0
23/02:30pm 35.7 34.6 14.4 28 13.2 SSW 13 20 7 11 1007.0 1006.8 0.0
23/02:00pm 35.5 34.4 15.3 30 12.7 SSW 15 26 8 14 1007.5 1007.3 0.0
23/01:30pm 35.8 35.1 15.5 29 12.8 SSW 13 20 7 11 1008.1 1007.9 0.0
23/01:00pm 35.1 35.4 15.9 31 12.1 SW 9 19 5 10 1008.5 1008.3 0.0
23/12:30pm 35.2 35.9 17.0 34 11.7 SSE 9 13 5 7 1008.9 1008.7 0.0
23/12:00pm 34.3 36.3 18.8 40 10.2 W 6 9 3 5 1009.2 1009.0 0.0
23/11:30am 33.7 35.2 19.0 42 9.7 SW 9 15 5 8 1009.4 1009.2 0.0
23/11:00am 32.7 35.1 21.5 51 7.6 WSW 11 17 6 9 1009.9 1009.7 0.0
23/10:30am 31.8 35.4 23.1 60 6.0 SSW 9 15 5 8 1010.2 1010.0 0.0
23/10:00am 31.0 34.3 22.6 61 5.7 WSW 9 13 5 7 1010.3 1010.1 0.0
23/09:30am 30.2 34.4 24.1 70 4.2 WSW 9 13 5 7 1010.4 1010.2 0.0
23/09:00am 28.8 34.3 24.6 78 2.9 WSW 4 7 2 4 1010.3 1010.1 0.0
23/08:30am 28.6 34.8 24.6 79 2.8 CALM 0 2 0 1 1010.0 1009.8 0.0
23/08:00am 26.1 30.7 23.8 87 1.6 ENE 6 7 3 4 1009.8 1009.6 0.0
23/07:30am 23.2 27.4 21.8 92 0.9 SSW 2 7 1 4 1009.3 1009.1 0.0
23/07:00am 22.8 26.1 21.4 92 0.9 SSW 6 9 3 5 1009.0 1008.8 0.0
23/06:30am 22.9 27.4 21.5 92 0.9 CALM 0 0 0 0 1008.7 1008.5 0.0
23/06:00am 23.1 27.7 21.7 92 0.9 CALM 0 0 0 0 1008.7 1008.5 0.0
23/05:30am 23.5 28.2 21.9 91 1.1 CALM 0 0 0 0 1008.7 1008.5 0.0
23/05:00am 24.3 29.5 22.9 92 0.9 CALM 0 0 0 0 1008.6 1008.4 0.0
23/04:30am 24.7 29.9 23.5 93 0.8 S 2 7 1 4 1008.4 1008.2 0.0
23/04:00am 23.9 28.9 22.5 92 0.9 CALM 0 7 0 4 1008.0 1007.8 0.0
23/03:30am 23.9 28.9 22.5 92 0.9 CALM 0 0 0 0 1008.0 1007.8 0.0
23/03:00am 24.0 28.0 22.8 93 0.8 SSW 6 7 3 4 1008.3 1008.1 0.0
23/02:30am 24.1 28.2 22.9 93 0.8 SSW 6 9 3 5 1008.6 1008.4 0.0
23/02:00am 23.3 26.6 21.9 92 0.9 SW 7 7 4 4 1008.9 1008.7 0.0
23/01:30am 23.3 27.9 21.7 91 1.1 CALM 0 0 0 0 1009.3 1009.1 0.0
23/01:00am 23.6 28.3 21.9 90 1.1 CALM 0 0 0 0 1009.6 1009.4 0.0
23/12:30am 23.9 28.6 22.0 89 1.3 CALM 0 0 0 0 1010.0 1009.8 0.0
23/12:00am 24.2 29.1 22.3 89 1.3 CALM 0 0 0 0 1010.3 1010.1 0.0
 
Date/Time
CST
Temp
°C
App
Temp
°C
Dew
Point
°C
Rel
Hum
%
Delta-T
°C
Wind Press
QNH
hPa
Press
MSL
hPa
Rain since
9am
mm
Dir  Spd
km/h
Gust
km/h
Spd
kts
Gust
kts
22/11:30pm 24.5 29.4 22.4 88 1.4 CALM 0 4 0 2 1010.4 1010.2 0.0
22/11:00pm 24.7 28.5 22.4 87 1.5 SSW 6 7 3 4 1010.5 1010.3 0.0
22/10:30pm 24.8 28.7 22.5 87 1.5 SW 6 7 3 4 1010.3 1010.1 0.0
22/10:00pm 25.1 29.9 22.2 84 1.9 CALM 0 0 0 0 1010.2 1010.0 0.0
22/09:30pm 25.9 30.6 22.0 79 2.6 CALM 0 0 0 0 1009.9 1009.7 0.0
22/09:00pm 27.2 32.1 22.4 75 3.2 CALM 0 0 0 0 1009.8 1009.6 0.0

Other Formats:

Comma delimited format used in spreadsheet applications
http://www.bom.gov.au/fwo/IDD60801/IDD60801.95111.axf

JavaScript Object Notation format (JSON) in row-major order
http://www.bom.gov.au/fwo/IDD60801/IDD60801.95111.json